This demonstration page uses our WeatherBlox Daily Observations layout. Learn more.

41.55636, -103.73856

Hourly Observations for January 10, 2020

Temp ( °F °C ) Dew Point ( °F °C ) Humidity (%) Winds ( mph kmh ) Pressure ( in mb ) Visibility ( mi km ) Precip ( " mm )
12:58 am 00:58 Mostly Cloudy 34 1.3 14 -10.2 42 42 Calm 29.92 1013 10 16.0934 0 0
1:58 am 01:58 Mostly Cloudy 34 1 15 -9.6 45 45 Calm 29.92 1013 10 16.0934 0 0
2:58 am 02:58 Cloudy 33 0.6 16 -8.7 50 50 SSE 6 9 29.93 1014 10 16.0934 0 0
3:58 am 03:58 Cloudy 34 1.2 18 -7.7 52 52 S 6 9 29.96 1015 10 16.0934 0 0
4:58 am 04:58 Mostly Cloudy 35 1.5 19 -7.3 52 52 Calm 29.97 1015 10 16.0934 0 0
5:58 am 05:58 Cloudy 33 0.7 22 -5.3 65 65 NW 5 7 30 1016 10 16.0934 0 0
6:58 am 06:58 Cloudy with Light Snow 31 -0.7 28 -2.5 88 88 W 10 17 30.02 1017 6 9.65604 0 0
7:58 am 07:58 Cloudy with Light Snow 30 -1.2 29 -1.6 97 97 W 5 7 29.93 1014 2.75 4.425685 0 0
8:58 am 08:58 Cloudy with Light Snow 30 -1.2 29 -1.4 99 99 Calm 29.95 1014 2 3.21868 0.02 0.508
9:58 am 09:58 Cloudy with Light Snow 30 -0.9 30 -1.2 98 98 SSW 15 24 29.93 1014 5 8.0467 0.02 0.508
10:58 am 10:58 Mostly Cloudy 30 -0.9 27 -2.6 88 88 Calm 29.95 1014 10 16.0934 0 0
11:58 am 11:58 Mostly Cloudy 23 -5 22 -5.7 95 95 WSW 7 11 30.01 1016 10 16.0934 0 0
12:58 pm 12:58 Mostly Cloudy 23 -5 18 -8 80 80 WNW 9 15 30.04 1017 10 16.0934 0 0
1:58 pm 13:58 Mostly Cloudy with Light Snow Showers 22 -5.3 20 -6.6 91 91 NW 17 28 30.11 1020 10 16.0934 0 0
3:58 pm 15:58 Cloudy with Light Snow 16 -9.1 14 -10 93 93 NNE 16 26 30.26 1025 2 3.21868 0 0
4:58 pm 16:58 Cloudy with Light Snow 14 -9.9 12 -10.9 92 92 NNE 13 20 30.31 1026 9 14.48406 0 0
6:58 pm 18:58 Mostly Cloudy with Scattered Snow Showers 16 -9.1 11 -11.6 82 82 N 9 15 30.31 1026 10 16.0934 0 0
7:58 pm 19:58 Cloudy with Light Snow 16 -8.8 10 -12 78 78 NNW 15 24 30.3 1026 10 16.0934 0 0
8:58 pm 20:58 Mostly Cloudy with Light Snow Showers 17 -8.4 10 -12.1 75 75 NNW 14 22 30.3 1026 10 16.0934 0 0
9:58 pm 21:58 Sunny 17 -8.2 10 -12 74 74 NW 9 15 30.3 1026 10 16.0934 0 0
10:58 pm 22:58 Sunny 18 -8 9 -12.6 70 70 N 3 6 30.3 1026 10 16.0934 0 0
11:58 pm 23:58 Clear 13 -10.7 8 -13.5 80 80 E 5 7 30.34 1027 10 16.0934 0 0

Powered by AerisWeather